Time;durP1;ratioP1;P1;durP2;ratioP2;P2;SDS_P1;SDS_P2;PMS_P1;PMS_P2;Temp;Humidity;BMP_temperature;BMP_pressure;BME280_temperature;BME280_humidity;BME280_pressure;Samples;Min_cycle;Max_cycle;Signal;HPM_P1;HPM_P2
2022/06/01 00:01:54;;;;;;;11.98;8.30;;;;;;;11.09;100.00;100363.34;8306466;28;20041;-59
2022/06/01 00:05:54;;;;;;;10.48;8.60;;;;;;;11.36;100.00;100364.25;8307690;28;20038;-59
2022/06/01 00:09:55;;;;;;;11.87;6.50;;;;;;;11.04;100.00;100366.50;8307650;28;20036;-59
2022/06/01 00:13:56;;;;;;;6.43;4.47;;;;;;;11.04;100.00;100363.78;8308256;28;20317;-60
2022/06/01 00:17:58;;;;;;;4.88;3.50;;;;;;;11.11;100.00;100364.94;8308963;28;20034;-60
2022/06/01 00:22:30;;;;;;;3.97;2.70;;;;;;;10.97;100.00;100359.97;8300536;28;20061;-61
2022/06/01 00:26:19;;;;;;;3.80;3.03;;;;;;;10.93;100.00;100360.41;8307899;28;20128;-60
2022/06/01 00:30:21;;;;;;;3.33;2.42;;;;;;;10.95;100.00;100350.31;8301798;28;20042;-60
2022/06/01 00:34:21;;;;;;;2.78;2.40;;;;;;;10.96;100.00;100350.16;8305623;28;20548;-60
2022/06/01 00:38:22;;;;;;;5.80;2.87;;;;;;;10.88;100.00;100363.56;8306418;28;20038;-60
2022/06/01 00:42:27;;;;;;;3.35;2.50;;;;;;;10.79;100.00;100368.97;8308710;28;20312;-60
2022/06/01 00:46:28;;;;;;;2.97;2.55;;;;;;;10.78;100.00;100372.69;8306981;28;20490;-60
2022/06/01 00:50:34;;;;;;;7.75;3.22;;;;;;;10.83;100.00;100371.25;8307127;28;20049;-60
2022/06/01 00:54:35;;;;;;;4.18;3.78;;;;;;;10.70;100.00;100359.91;8307508;28;20384;-60
2022/06/01 00:58:39;;;;;;;4.57;3.42;;;;;;;10.30;100.00;100359.22;8307671;28;20034;-60
2022/06/01 01:02:40;;;;;;;4.53;3.53;;;;;;;10.39;100.00;100366.47;8327904;28;20132;-60
2022/06/01 01:06:42;;;;;;;4.35;3.45;;;;;;;10.74;100.00;100371.28;8297589;28;20092;-60
2022/06/01 01:10:42;;;;;;;6.22;3.95;;;;;;;10.59;100.00;100368.19;8304505;28;20148;-60
2022/06/01 01:14:45;;;;;;;5.95;3.47;;;;;;;10.54;100.00;100365.06;8306311;28;20091;-60
2022/06/01 01:18:47;;;;;;;6.40;3.30;;;;;;;10.20;100.00;100361.09;8304978;28;20406;-60
2022/06/01 01:23:14;;;;;;;4.47;3.80;;;;;;;10.29;100.00;100360.25;8305859;28;20091;-60
2022/06/01 01:27:14;;;;;;;4.13;3.60;;;;;;;10.12;100.00;100369.03;8305606;28;20041;-60
2022/06/01 01:31:20;;;;;;;3.85;3.50;;;;;;;10.06;100.00;100374.97;8307649;28;20042;-60
2022/06/01 01:35:20;;;;;;;5.22;3.25;;;;;;;9.82;100.00;100367.25;8309351;28;20033;-60
2022/06/01 01:39:20;;;;;;;11.07;3.95;;;;;;;9.47;100.00;100366.06;8305889;28;20521;-60
2022/06/01 01:43:21;;;;;;;5.10;3.90;;;;;;;9.40;100.00;100354.09;8306246;28;20048;-60
2022/06/01 01:47:22;;;;;;;8.15;4.07;;;;;;;9.24;100.00;100349.22;8304378;28;20049;-60
2022/06/01 01:51:25;;;;;;;5.18;3.78;;;;;;;9.09;100.00;100355.13;8307134;28;20076;-60
2022/06/01 02:06:17;;;;;;;6.05;4.60;;;;;;;9.69;100.00;100344.22;8360861;27;20466;-60
2022/06/01 02:09:10;;;;;;;9.38;3.80;;;;;;;9.63;100.00;100350.19;8366605;28;20041;-60
2022/06/01 02:13:11;;;;;;;4.95;4.00;;;;;;;9.38;100.00;100356.06;8352668;28;20439;-60
2022/06/01 02:17:32;;;;;;;6.85;3.75;;;;;;;9.16;100.00;100367.06;8356518;28;20037;-60
2022/06/01 02:21:32;;;;;;;7.25;3.25;;;;;;;8.96;100.00;100365.25;8352430;28;20041;-60
2022/06/01 02:25:33;;;;;;;5.32;3.45;;;;;;;9.03;100.00;100369.16;8336562;28;20049;-61
2022/06/01 02:29:45;;;;;;;3.75;3.42;;;;;;;9.01;100.00;100365.72;8331413;28;20030;-60
2022/06/01 02:33:49;;;;;;;6.13;3.97;;;;;;;8.97;100.00;100370.50;8346476;28;20160;-60
2022/06/01 02:37:54;;;;;;;5.82;4.30;;;;;;;9.21;100.00;100364.84;8343576;28;20448;-60
2022/06/01 02:42:28;;;;;;;6.78;4.13;;;;;;;9.30;100.00;100369.41;8337452;28;20120;-60
2022/06/01 02:46:29;;;;;;;4.28;3.30;;;;;;;8.62;100.00;100378.13;8322098;28;20034;-60
2022/06/01 02:50:32;;;;;;;4.10;3.65;;;;;;;8.38;100.00;100379.38;8343125;28;20120;-59
2022/06/01 02:54:33;;;;;;;7.95;4.10;;;;;;;8.52;100.00;100381.72;8329827;28;20033;-59
2022/06/01 02:58:34;;;;;;;6.32;4.85;;;;;;;8.39;100.00;100381.94;8325825;28;20488;-59
2022/06/01 03:02:38;;;;;;;5.63;4.65;;;;;;;8.29;100.00;100377.47;8352792;28;20080;-59
2022/06/01 03:06:39;;;;;;;7.78;5.25;;;;;;;8.50;100.00;100389.06;8363790;28;20048;-59
2022/06/01 03:10:39;;;;;;;7.80;5.15;;;;;;;8.17;100.00;100397.31;8333326;28;20116;-59
2022/06/01 03:14:40;;;;;;;4.45;4.05;;;;;;;8.18;100.00;100393.63;8315741;28;20506;-59
2022/06/01 03:18:40;;;;;;;8.47;4.33;;;;;;;8.14;100.00;100393.00;8322480;28;20528;-59
2022/06/01 03:22:41;;;;;;;8.52;4.40;;;;;;;8.18;100.00;100397.19;8364926;28;20265;-59
2022/06/01 03:26:42;;;;;;;8.02;4.50;;;;;;;8.08;100.00;100391.69;8325190;28;20050;-59
2022/06/01 03:30:43;;;;;;;8.02;5.10;;;;;;;8.17;100.00;100403.53;8317782;28;20041;-59
2022/06/01 03:34:43;;;;;;;7.43;5.18;;;;;;;8.54;100.00;100401.31;8318497;28;20044;-59
2022/06/01 03:38:44;;;;;;;7.43;4.63;;;;;;;8.27;100.00;100409.03;8331071;28;20124;-59
2022/06/01 03:42:44;;;;;;;5.03;4.57;;;;;;;8.61;100.00;100403.38;8326958;28;20080;-59
2022/06/01 03:46:44;;;;;;;20.13;5.47;;;;;;;8.72;100.00;100407.84;8313467;28;20656;-60
2022/06/01 03:50:45;;;;;;;9.57;4.72;;;;;;;8.77;100.00;100413.66;8310043;28;20042;-60
2022/06/01 03:54:45;;;;;;;4.78;4.00;;;;;;;8.56;100.00;100410.97;8314356;28;20115;-60
2022/06/01 03:58:46;;;;;;;5.13;3.85;;;;;;;8.49;100.00;100411.63;8330534;28;20105;-60
2022/06/01 04:02:47;;;;;;;10.63;4.17;;;;;;;8.68;100.00;100419.84;8322827;28;20037;-60
2022/06/01 04:06:47;;;;;;;5.05;3.80;;;;;;;8.81;100.00;100420.53;8288485;28;20313;-60
2022/06/01 04:10:49;;;;;;;5.10;3.83;;;;;;;9.06;100.00;100420.94;8307099;28;20154;-60
2022/06/01 04:14:50;;;;;;;6.13;3.50;;;;;;;9.30;100.00;100417.97;8308486;28;20089;-60
2022/06/01 04:18:50;;;;;;;4.90;3.38;;;;;;;9.47;100.00;100430.81;8301718;28;20038;-60
2022/06/01 04:22:54;;;;;;;5.30;3.45;;;;;;;9.80;100.00;100446.69;8310444;28;20060;-60
2022/06/01 04:26:54;;;;;;;5.67;3.00;;;;;;;10.14;100.00;100449.94;8309430;28;20072;-60
2022/06/01 04:30:55;;;;;;;5.95;3.20;;;;;;;10.08;100.00;100448.66;8314374;28;20038;-61
2022/06/01 04:34:55;;;;;;;6.18;3.67;;;;;;;9.87;100.00;100440.63;8317199;28;20038;-60
2022/06/01 04:38:55;;;;;;;4.27;3.40;;;;;;;9.96;100.00;100439.78;8295901;28;20064;-60
2022/06/01 04:42:56;;;;;;;5.53;4.07;;;;;;;10.27;100.00;100429.75;8303335;28;20284;-60
2022/06/01 04:46:56;;;;;;;11.98;4.00;;;;;;;10.85;100.00;100431.47;8304668;28;20289;-60
2022/06/01 04:50:58;;;;;;;5.50;3.75;;;;;;;11.34;100.00;100433.91;8324986;28;20097;-60
2022/06/01 04:54:58;;;;;;;8.85;5.13;;;;;;;11.62;99.39;100441.09;8302259;28;20076;-60
2022/06/01 04:58:59;;;;;;;6.45;3.10;;;;;;;11.74;96.10;100439.03;8322598;28;20065;-60
2022/06/01 05:03:00;;;;;;;4.88;3.28;;;;;;;12.00;95.84;100422.94;8301353;28;20049;-61
2022/06/01 05:07:00;;;;;;;7.10;3.50;;;;;;;12.18;97.46;100434.66;8311841;28;20077;-61
2022/06/01 05:11:01;;;;;;;7.93;3.17;;;;;;;12.42;93.23;100440.34;8308784;28;20041;-61
2022/06/01 05:15:01;;;;;;;6.03;3.58;;;;;;;12.51;93.44;100447.56;8319595;28;20518;-61
2022/06/01 05:19:02;;;;;;;7.22;3.15;;;;;;;12.72;92.19;100443.50;8305137;28;20053;-61
2022/06/01 05:23:02;;;;;;;5.75;2.92;;;;;;;13.04;88.39;100441.09;8323081;28;20042;-61
2022/06/01 05:27:03;;;;;;;4.45;3.45;;;;;;;13.17;88.63;100435.25;8305850;28;20053;-61
2022/06/01 05:31:07;;;;;;;9.68;3.40;;;;;;;13.03;88.16;100438.53;8351349;28;20048;-61
2022/06/01 05:35:08;;;;;;;9.05;3.28;;;;;;;13.09;90.35;100435.19;8306999;28;20171;-61
2022/06/01 05:39:08;;;;;;;4.35;3.22;;;;;;;13.27;88.56;100438.72;8288649;28;20042;-61
2022/06/01 05:43:12;;;;;;;7.50;3.08;;;;;;;13.71;92.26;100432.19;8313704;28;20490;-61
2022/06/01 05:47:13;;;;;;;;;;;;;;;14.01;85.84;100439.78;8323357;28;20033;-61
2022/06/01 05:51:13;;;;;;;3.73;2.73;;;;;;;14.24;85.83;100443.63;8324810;28;19932;-61
2022/06/01 05:55:14;;;;;;;4.55;2.72;;;;;;;14.51;83.61;100451.50;8307523;28;20053;-61
2022/06/01 05:59:15;;;;;;;8.05;2.42;;;;;;;14.67;85.24;100456.97;8318154;28;20037;-61
2022/06/01 06:03:18;;;;;;;5.95;2.60;;;;;;;14.95;83.10;100452.91;8327651;28;20057;-61
2022/06/01 06:07:19;;;;;;;4.65;2.40;;;;;;;14.96;83.17;100459.19;8322756;28;20041;-61
2022/06/01 06:11:20;;;;;;;6.28;2.25;;;;;;;15.21;83.16;100453.56;8303725;28;20038;-61
2022/06/01 06:15:21;;;;;;;5.88;2.47;;;;;;;15.54;83.22;100455.25;8304634;28;20048;-61
2022/06/01 06:19:21;;;;;;;6.63;2.55;;;;;;;15.54;81.25;100455.25;8309081;28;20026;-61
2022/06/01 06:23:22;;;;;;;3.53;2.20;;;;;;;15.69;80.64;100456.25;8324478;28;20038;-61
2022/06/01 06:27:22;;;;;;;8.35;2.40;;;;;;;15.93;80.11;100458.03;8319336;28;20462;-61
2022/06/01 06:31:23;;;;;;;5.90;2.25;;;;;;;16.16;79.56;100449.94;8314402;28;20045;-61
2022/06/01 06:35:24;;;;;;;4.13;1.98;;;;;;;16.31;78.72;100453.63;8320790;28;20401;-61
2022/06/01 06:39:25;;;;;;;6.55;2.30;;;;;;;16.55;77.99;100456.19;8335210;28;20040;-61
2022/06/01 06:43:27;;;;;;;5.38;2.60;;;;;;;16.29;78.28;100466.56;8322259;28;20053;-61
2022/06/01 06:47:28;;;;;;;8.70;3.10;;;;;;;16.10;78.79;100464.28;8304893;28;20275;-61
2022/06/01 06:51:28;;;;;;;4.07;2.80;;;;;;;16.03;78.07;100466.00;8326352;28;20405;-61
2022/06/01 06:55:29;;;;;;;9.25;3.03;;;;;;;16.03;79.73;100460.53;8311685;28;20030;-61
2022/06/01 06:59:29;;;;;;;5.13;2.10;;;;;;;16.04;80.44;100471.28;8322609;28;20041;-61
2022/06/01 07:03:30;;;;;;;5.78;2.30;;;;;;;16.02;79.89;100467.03;8332665;28;20315;-61
2022/06/01 07:07:31;;;;;;;9.38;2.80;;;;;;;16.15;80.33;100470.91;8333085;28;20037;-61
2022/06/01 07:11:31;;;;;;;3.80;2.45;;;;;;;16.12;79.96;100475.84;8323046;28;20066;-61
2022/06/01 07:15:32;;;;;;;7.30;2.50;;;;;;;16.15;79.51;100480.94;8318853;28;20063;-61
2022/06/01 07:19:33;;;;;;;6.18;3.20;;;;;;;16.19;80.27;100471.41;8315046;28;20029;-61
2022/06/01 07:23:37;;;;;;;5.50;2.72;;;;;;;16.70;78.50;100476.25;8322296;28;20044;-61
2022/06/01 07:27:37;;;;;;;5.20;2.30;;;;;;;16.88;76.58;100485.84;8335110;28;20044;-61
2022/06/01 07:31:38;;;;;;;9.33;2.57;;;;;;;16.93;76.21;100488.03;8323122;28;20538;-61
2022/06/01 07:35:38;;;;;;;6.93;2.55;;;;;;;16.79;75.78;100478.75;8313036;28;20268;-62
2022/06/01 07:43:59;;;;;;;5.55;2.67;;;;;;;16.88;74.56;100496.78;8320939;28;20280;-61
2022/06/01 07:47:59;;;;;;;9.18;2.67;;;;;;;16.69;76.50;100496.38;8324668;28;20037;-61
2022/06/01 07:51:59;;;;;;;4.43;2.10;;;;;;;16.90;75.08;100493.88;8321158;28;20033;-61
2022/06/01 07:56:00;;;;;;;5.20;3.55;;;;;;;16.89;73.74;100494.88;8319148;28;20270;-61
2022/06/01 08:00:00;;;;;;;9.85;2.28;;;;;;;16.87;73.88;100499.69;8321034;28;20044;-61
2022/06/01 08:04:02;;;;;;;6.72;2.67;;;;;;;16.76;74.06;100500.94;8330324;28;20128;-61
2022/06/01 08:08:03;;;;;;;7.60;2.83;;;;;;;16.99;75.64;100492.78;8315867;28;20038;-61
2022/06/01 08:13:06;;;;;;;8.68;2.30;;;;;;;16.95;73.37;100491.41;8317065;28;20040;-61
2022/06/01 08:16:24;;;;;;;7.82;2.38;;;;;;;17.23;73.07;100501.59;8314668;28;20034;-61
2022/06/01 08:20:27;;;;;;;4.60;2.15;;;;;;;17.66;71.39;100502.81;8331465;28;20042;-61
2022/06/01 08:24:28;;;;;;;4.57;2.17;;;;;;;17.90;69.66;100504.41;8311711;28;20038;-61
2022/06/01 08:28:28;;;;;;;3.63;2.53;;;;;;;18.29;72.38;100514.03;8312653;28;20041;-61
2022/06/01 08:32:29;;;;;;;6.07;2.00;;;;;;;18.84;68.41;100507.97;8328353;28;20087;-61
2022/06/01 08:36:29;;;;;;;5.03;1.70;;;;;;;18.62;66.68;100509.84;8336672;28;20044;-61
2022/06/01 08:40:34;;;;;;;5.10;1.35;;;;;;;18.93;67.59;100510.41;8336101;28;20494;-61
2022/06/01 08:44:38;;;;;;;7.93;1.90;;;;;;;19.07;66.03;100516.91;8308401;28;20045;-61
2022/06/01 08:48:43;;;;;;;7.10;2.25;;;;;;;18.74;65.28;100504.72;8318408;28;20041;-61
2022/06/01 08:52:44;;;;;;;6.47;2.05;;;;;;;18.83;67.16;100507.16;8309071;28;20124;-61
2022/06/01 08:56:48;;;;;;;4.90;1.80;;;;;;;19.30;67.35;100517.56;8300304;28;20034;-61
2022/06/01 09:00:57;;;;;;;4.10;2.15;;;;;;;19.59;65.23;100511.06;8303835;28;20045;-61
2022/06/01 09:05:23;;;;;;;5.28;2.03;;;;;;;19.67;67.92;100510.94;8309333;28;20537;-61
2022/06/01 09:09:30;;;;;;;6.50;1.50;;;;;;;19.44;66.32;100503.78;8307250;28;20095;-61
2022/06/01 09:13:52;;;;;;;4.22;2.28;;;;;;;19.08;64.82;100507.63;8309643;28;20550;-61
2022/06/01 09:17:54;;;;;;;4.95;1.65;;;;;;;19.32;66.24;100501.78;8324082;28;20060;-61
2022/06/01 09:22:42;;;;;;;4.75;1.35;;;;;;;19.93;62.40;100501.00;8325815;28;20633;-61
2022/06/01 09:26:31;;;;;;;3.63;1.25;;;;;;;20.04;61.65;100505.06;8298744;28;20030;-61
2022/06/01 09:30:37;;;;;;;2.22;1.33;;;;;;;19.77;62.01;100501.31;8324822;28;20053;-61
2022/06/01 09:34:44;;;;;;;7.05;1.45;;;;;;;20.79;60.91;100501.22;8313722;28;20029;-61
2022/06/01 09:38:59;;;;;;;3.50;1.35;;;;;;;20.55;58.02;100504.50;8353547;28;20041;-61
2022/06/01 09:43:00;;;;;;;2.85;1.10;;;;;;;20.16;58.00;100503.50;8327599;28;20040;-61
2022/06/01 09:47:03;;;;;;;2.45;0.70;;;;;;;19.66;59.18;100506.47;8328243;28;20033;-61
2022/06/01 09:51:16;;;;;;;3.88;1.13;;;;;;;20.16;60.64;100508.97;8313360;28;20398;-61
2022/06/01 09:55:22;;;;;;;4.00;1.17;;;;;;;20.10;58.74;100509.75;8315279;28;20033;-61
2022/06/01 10:08:19;;;;;;;6.53;1.30;;;;;;;20.02;59.71;100490.69;8328106;28;20037;-61
2022/06/01 10:12:33;;;;;;;2.65;0.90;;;;;;;20.95;58.23;100500.06;8328764;28;20041;-61
2022/06/01 10:17:09;;;;;;;5.10;1.20;;;;;;;21.36;56.17;100503.50;8330923;28;20029;-61
2022/06/01 10:21:15;;;;;;;3.05;0.80;;;;;;;25.01;49.45;100498.41;8324364;28;20041;-61
2022/06/01 10:25:21;;;;;;;6.13;1.27;;;;;;;25.50;47.35;100503.63;8314587;28;20367;-61
2022/06/01 10:29:31;;;;;;;4.13;1.48;;;;;;;22.47;51.28;100506.94;8340470;28;20033;-61
2022/06/01 10:33:40;;;;;;;3.20;1.30;;;;;;;20.68;56.42;100506.47;8323290;28;20042;-61
2022/06/01 10:37:54;;;;;;;3.53;1.15;;;;;;;19.76;59.52;100520.72;8313846;28;20121;-62
2022/06/01 10:42:02;;;;;;;;;;;;;;;20.82;57.24;100505.44;8314314;28;20042;-62
2022/06/01 10:46:11;;;;;;;2.88;1.00;;;;;;;20.56;58.60;100508.13;8320368;28;20393;-62
2022/06/01 10:50:17;;;;;;;4.97;1.00;;;;;;;19.96;60.13;100510.72;8327148;28;20559;-62
2022/06/01 10:54:28;;;;;;;2.53;1.20;;;;;;;20.23;58.79;100515.34;8322088;28;20038;-62
2022/06/01 10:58:29;;;;;;;8.52;1.45;;;;;;;20.19;58.64;100506.66;8332362;28;20088;-62
2022/06/01 11:03:00;;;;;;;3.13;0.90;;;;;;;23.47;54.76;100500.69;8312130;28;20038;-62
2022/06/01 11:11:30;;;;;;;3.63;0.95;;;;;;;25.25;48.88;100499.31;8384117;27;20414;-61
2022/06/01 11:15:37;;;;;;;;;;;;;;;26.58;46.04;100500.13;8368131;28;20498;-60
2022/06/01 11:19:56;;;;;;;4.07;1.02;;;;;;;27.81;45.47;100500.31;8363223;28;19913;-60
2022/06/01 11:24:35;;;;;;;3.28;1.02;;;;;;;27.82;44.45;100497.28;8390900;28;20047;-59
2022/06/01 11:29:11;;;;;;;2.70;0.95;;;;;;;27.67;43.70;100493.41;8397327;28;20060;-59
2022/06/01 11:33:33;;;;;;;1.85;0.80;;;;;;;27.03;43.06;100502.19;8380322;27;20082;-60
2022/06/01 11:37:40;;;;;;;2.45;0.80;;;;;;;23.98;47.07;100493.03;8384270;28;20037;-59
2022/06/01 11:41:50;;;;;;;4.00;1.42;;;;;;;21.99;51.28;100502.84;8387488;28;20041;-60
2022/06/01 11:45:55;;;;;;;1.27;0.63;;;;;;;20.76;51.51;100500.78;8387946;28;20057;-60
2022/06/01 11:54:34;;;;;;;3.70;0.95;;;;;;;20.55;53.82;100503.66;8329373;28;20421;-62
2022/06/01 12:02:50;;;;;;;5.97;1.35;;;;;;;25.23;46.31;100493.16;8419618;27;20118;-60
2022/06/01 12:07:00;;;;;;;4.63;1.23;;;;;;;23.09;49.56;100487.78;8409748;27;20040;-60
2022/06/01 12:11:04;;;;;;;3.75;1.02;;;;;;;22.67;49.54;100482.94;8413570;27;20032;-61
2022/06/01 12:15:29;;;;;;;4.68;1.20;;;;;;;22.39;51.74;100487.91;8403190;28;20036;-61
2022/06/01 12:28:31;;;;;;;3.15;0.68;;;;;;;21.81;51.63;100483.41;8390664;28;20049;-61
2022/06/01 12:33:03;;;;;;;1.45;0.80;;;;;;;21.90;50.00;100473.00;8403349;28;20029;-61
2022/06/01 12:41:21;;;;;;;7.30;1.52;;;;;;;21.90;52.50;100471.13;8414065;27;20426;-61
2022/06/01 12:45:26;;;;;;;5.72;1.15;;;;;;;21.66;52.64;100470.88;8403298;28;20099;-61
2022/06/01 12:49:37;;;;;;;5.53;1.10;;;;;;;21.19;52.09;100475.53;8397882;28;20512;-61
2022/06/01 12:53:44;;;;;;;3.05;1.17;;;;;;;20.83;51.53;100479.69;8419713;28;20043;-61
2022/06/01 12:57:52;;;;;;;2.70;1.20;;;;;;;21.41;51.24;100476.19;8411809;28;20541;-61
2022/06/01 13:02:00;;;;;;;4.95;1.10;;;;;;;21.03;51.33;100469.59;8409547;28;20058;-61
2022/06/01 13:06:08;;;;;;;4.15;1.13;;;;;;;20.81;52.84;100476.28;8411007;28;20536;-61
2022/06/01 13:10:18;;;;;;;3.88;1.10;;;;;;;21.50;52.33;100474.91;8410769;28;20024;-61
2022/06/01 13:14:25;;;;;;;3.75;0.95;;;;;;;21.17;52.47;100476.81;8417519;28;20042;-61
2022/06/01 13:18:31;;;;;;;9.18;1.35;;;;;;;21.07;54.79;100477.22;8412949;28;20077;-61
2022/06/01 13:22:38;;;;;;;2.92;0.98;;;;;;;20.97;53.06;100478.69;8419201;28;20051;-61
2022/06/01 13:26:44;;;;;;;3.40;0.93;;;;;;;20.66;54.73;100483.84;8416587;28;20074;-61
2022/06/01 13:30:45;;;;;;;2.85;0.93;;;;;;;19.92;54.36;100484.72;8411052;28;20033;-61
2022/06/01 13:34:50;;;;;;;2.25;0.75;;;;;;;19.85;56.61;100494.81;8410575;28;20115;-61
2022/06/01 13:38:52;;;;;;;7.97;1.55;;;;;;;20.18;54.83;100490.38;8409931;28;20551;-61
2022/06/01 13:47:32;;;;;;;1.67;0.73;;;;;;;20.90;53.17;100486.03;8418260;27;20415;-61
2022/06/01 13:56:00;;;;;;;1.27;0.88;;;;;;;20.86;53.13;100480.09;8347870;28;20386;-60
2022/06/01 14:00:04;;;;;;;2.60;0.85;;;;;;;20.78;53.36;100488.56;8323828;28;20114;-60
2022/06/01 14:04:24;;;;;;;;;;;;;;;20.67;53.75;100493.78;8317879;28;20557;-61
2022/06/01 14:08:39;;;;;;;6.82;2.25;;;;;;;19.69;58.78;100522.53;8345624;28;20424;-61
2022/06/01 14:12:41;;;;;;;14.90;3.30;;;;;;;18.38;63.68;100545.75;8351555;28;20037;-61
2022/06/01 14:16:52;;;;;;;23.02;4.70;;;;;;;18.18;65.07;100543.75;8350705;28;20034;-61
2022/06/01 14:20:53;;;;;;;20.45;3.55;;;;;;;18.32;66.26;100549.22;8344069;28;20048;-61
2022/06/01 14:29:14;;;;;;;13.20;3.55;;;;;;;17.86;64.28;100553.16;8346094;28;20045;-61
2022/06/01 14:33:14;;;;;;;10.82;3.60;;;;;;;17.53;65.26;100557.25;8349208;28;20087;-61
2022/06/01 14:37:14;;;;;;;4.90;3.22;;;;;;;17.53;66.25;100579.09;8351119;28;20061;-61
2022/06/01 14:41:25;;;;;;;3.10;2.70;;;;;;;17.54;66.11;100569.91;8349353;28;20061;-61
2022/06/01 14:45:26;;;;;;;5.50;2.92;;;;;;;17.46;67.84;100567.22;8349119;28;20283;-61
2022/06/01 14:49:26;;;;;;;5.95;2.40;;;;;;;17.27;68.38;100568.50;8344664;28;20060;-61
2022/06/01 14:53:32;;;;;;;3.10;2.70;;;;;;;17.12;67.86;100569.50;8332730;28;20552;-60
2022/06/01 14:57:32;;;;;;;5.03;2.42;;;;;;;17.24;68.07;100568.91;8339073;28;20041;-60
2022/06/01 15:01:43;;;;;;;3.80;2.08;;;;;;;17.43;66.73;100573.06;8337148;28;20177;-61
2022/06/01 15:05:44;;;;;;;10.82;2.70;;;;;;;17.51;65.56;100564.78;8336625;28;20048;-61
2022/06/01 15:09:44;;;;;;;2.92;2.40;;;;;;;18.01;66.43;100584.13;8328476;28;20470;-61
2022/06/01 15:13:44;;;;;;;3.20;2.20;;;;;;;18.15;63.50;100569.63;8327883;28;20037;-61
2022/06/01 15:17:46;;;;;;;4.13;3.03;;;;;;;18.31;63.15;100574.91;8332386;28;20291;-64
2022/06/01 15:21:51;;;;;;;5.70;3.53;;;;;;;18.17;61.77;100581.22;8332161;28;20585;-61
2022/06/01 15:25:51;;;;;;;4.45;2.97;;;;;;;18.28;61.91;100569.81;8325909;28;20033;-62
2022/06/01 15:39:34;;;;;;;7.22;3.80;;;;;;;18.91;62.58;100583.72;8303852;28;20054;-62
2022/06/01 15:42:53;;;;;;;3.97;3.20;;;;;;;18.76;62.67;100591.13;8324769;28;20478;-62
2022/06/01 15:46:54;;;;;;;5.53;3.50;;;;;;;18.76;63.61;100596.59;8322797;28;20055;-62
2022/06/01 15:50:56;;;;;;;4.18;3.17;;;;;;;18.49;62.56;100600.06;8324028;28;20280;-62
2022/06/01 15:54:57;;;;;;;6.00;3.10;;;;;;;18.60;64.59;100602.31;8312263;28;20662;-62
2022/06/01 15:58:58;;;;;;;6.10;3.43;;;;;;;18.70;61.67;100597.38;8326835;28;20387;-62
2022/06/01 16:03:00;;;;;;;3.50;2.90;;;;;;;18.60;62.24;100602.31;8313627;28;20820;-62
2022/06/01 16:07:00;;;;;;;3.60;3.05;;;;;;;18.26;62.49;100604.72;8318455;28;20048;-62
2022/06/01 16:11:02;;;;;;;6.78;3.42;;;;;;;18.09;63.14;100607.84;8318304;28;20049;-62
2022/06/01 16:15:03;;;;;;;3.47;2.88;;;;;;;17.98;63.32;100609.13;8319142;28;20766;-62
2022/06/01 16:19:06;;;;;;;4.15;2.65;;;;;;;18.12;64.02;100605.59;8321391;28;20046;-62
2022/06/01 16:23:06;;;;;;;4.25;2.70;;;;;;;18.08;61.97;100601.50;8324054;28;20041;-62
2022/06/01 16:27:07;;;;;;;2.72;2.50;;;;;;;18.07;62.17;100616.22;8320075;28;20071;-62
2022/06/01 16:31:11;;;;;;;3.77;2.47;;;;;;;17.94;60.68;100601.47;8326186;28;20049;-62
2022/06/01 16:35:31;;;;;;;2.50;2.03;;;;;;;18.05;61.58;100610.06;8324366;28;20588;-62
2022/06/01 16:39:31;;;;;;;2.70;2.30;;;;;;;17.97;59.71;100614.78;8323888;28;20071;-62
2022/06/01 16:43:36;;;;;;;5.27;1.90;;;;;;;17.83;60.05;100608.25;8324962;28;20310;-62
2022/06/01 16:47:37;;;;;;;4.00;1.70;;;;;;;18.01;60.86;100606.03;8324240;28;20284;-62
2022/06/01 16:51:37;;;;;;;4.70;2.67;;;;;;;17.77;60.45;100603.50;8292878;28;20053;-62
2022/06/01 16:55:38;;;;;;;3.55;3.25;;;;;;;17.63;61.71;100618.00;8314293;28;20046;-61
2022/06/01 16:59:40;;;;;;;4.28;3.15;;;;;;;17.43;61.93;100617.66;8325213;28;20044;-62
2022/06/01 17:03:40;;;;;;;6.55;3.63;;;;;;;17.48;64.27;100619.84;8325437;28;20120;-62
2022/06/01 17:07:41;;;;;;;5.68;3.20;;;;;;;17.64;63.97;100627.91;8329101;28;20049;-62
2022/06/01 17:11:42;;;;;;;4.90;3.80;;;;;;;17.54;63.73;100619.09;8324969;28;20045;-62
2022/06/01 17:15:42;;;;;;;4.28;3.88;;;;;;;17.60;63.57;100626.59;8326871;28;20858;-62
2022/06/01 17:19:43;;;;;;;7.95;4.07;;;;;;;17.59;63.67;100627.59;8324762;28;20053;-62
2022/06/01 17:23:43;;;;;;;4.95;3.42;;;;;;;17.52;64.48;100632.97;8322321;28;20045;-62
2022/06/01 17:27:44;;;;;;;7.35;3.78;;;;;;;17.49;65.21;100629.72;8329342;28;20094;-62
2022/06/01 17:31:45;;;;;;;5.15;3.60;;;;;;;17.40;65.80;100634.38;8307923;28;20045;-62
2022/06/01 17:35:45;;;;;;;4.97;4.05;;;;;;;17.33;65.49;100627.91;8335858;28;20074;-62
2022/06/01 17:39:46;;;;;;;5.90;3.70;;;;;;;17.23;65.35;100630.03;8344643;28;20545;-62
2022/06/01 17:43:46;;;;;;;5.22;3.50;;;;;;;17.20;67.99;100638.59;8329082;28;20056;-62
2022/06/01 17:47:47;;;;;;;6.40;3.67;;;;;;;17.12;65.96;100633.19;8330279;28;20456;-62
2022/06/01 17:51:48;;;;;;;6.22;2.85;;;;;;;17.08;65.18;100644.66;8328760;28;20034;-62
2022/06/01 17:55:49;;;;;;;3.60;2.17;;;;;;;17.02;64.20;100635.28;8331135;28;20030;-62
2022/06/01 17:59:51;;;;;;;3.60;1.85;;;;;;;17.01;62.62;100632.72;8329495;28;20033;-61
2022/06/01 18:03:52;;;;;;;2.75;1.50;;;;;;;17.04;62.41;100637.84;8331545;28;20065;-61
2022/06/01 18:07:53;;;;;;;2.28;1.40;;;;;;;16.97;61.32;100639.59;8330531;28;20057;-61
2022/06/01 18:11:54;;;;;;;6.03;1.50;;;;;;;16.88;62.00;100648.84;8331273;28;20097;-61
2022/06/01 18:15:55;;;;;;;4.68;1.40;;;;;;;16.78;62.04;100653.69;8326929;28;20054;-61
2022/06/01 18:19:55;;;;;;;4.43;1.40;;;;;;;16.75;62.86;100663.09;8327231;28;20037;-61
2022/06/01 18:23:56;;;;;;;1.85;1.30;;;;;;;16.64;62.89;100662.59;8329891;28;20111;-61
2022/06/01 18:27:56;;;;;;;1.15;1.05;;;;;;;16.58;61.94;100668.75;8327750;28;20033;-61
2022/06/01 18:31:57;;;;;;;2.97;1.10;;;;;;;16.47;63.08;100672.72;8326490;28;20048;-61
2022/06/01 18:35:57;;;;;;;1.70;1.10;;;;;;;16.47;63.13;100680.91;8293367;28;20038;-61
2022/06/01 18:39:58;;;;;;;4.13;1.20;;;;;;;16.36;63.81;100683.13;8291792;28;20445;-61
2022/06/01 18:43:59;;;;;;;1.75;1.10;;;;;;;16.33;64.15;100680.72;8325774;28;20025;-61
2022/06/01 18:48:00;;;;;;;3.65;1.10;;;;;;;16.16;64.16;100679.06;8324267;28;20140;-61
2022/06/01 18:52:00;;;;;;;4.22;0.90;;;;;;;16.08;65.21;100684.53;8305597;28;20088;-61
2022/06/01 18:56:01;;;;;;;2.63;1.10;;;;;;;16.28;64.77;100688.59;8333977;28;20043;-61
2022/06/01 19:01:36;;;;;;;1.00;0.80;;;;;;;16.08;65.44;100698.16;8335321;28;20687;-61
2022/06/01 19:04:22;;;;;;;1.13;1.00;;;;;;;16.08;66.27;100703.63;8336048;28;20272;-61
2022/06/01 19:08:29;;;;;;;3.25;1.20;;;;;;;15.99;66.52;100707.38;8333792;28;20045;-61
2022/06/01 19:12:29;;;;;;;2.92;1.13;;;;;;;15.83;67.45;100710.09;8368124;28;20037;-61
2022/06/01 19:16:34;;;;;;;3.33;0.90;;;;;;;15.47;69.07;100713.09;8330200;28;20037;-61
2022/06/01 19:20:35;;;;;;;0.98;0.60;;;;;;;15.42;69.35;100711.91;8335753;28;20061;-61
2022/06/01 19:24:35;;;;;;;5.87;1.30;;;;;;;15.20;70.52;100717.94;8332974;28;20045;-61
2022/06/01 19:28:38;;;;;;;2.45;1.20;;;;;;;14.92;72.53;100724.66;8330323;28;20268;-61
2022/06/01 19:32:39;;;;;;;4.97;1.08;;;;;;;14.78;73.43;100728.81;8333865;28;20034;-61
2022/06/01 19:45:22;;;;;;;7.25;1.63;;;;;;;14.23;76.12;100751.94;8295053;28;20048;-61
2022/06/01 19:49:23;;;;;;;3.25;1.15;;;;;;;13.70;79.97;100762.78;8327374;28;20045;-60
2022/06/01 19:53:23;;;;;;;1.80;0.95;;;;;;;13.59;80.82;100762.19;8332345;28;20572;-60
2022/06/01 19:57:24;;;;;;;1.90;1.60;;;;;;;13.46;81.35;100768.00;8331271;28;20418;-60
2022/06/01 20:01:25;;;;;;;1.70;1.30;;;;;;;13.21;84.19;100771.41;8331841;28;20391;-60
2022/06/01 20:05:25;;;;;;;2.72;1.40;;;;;;;13.11;84.79;100783.31;8332066;28;20080;-60
2022/06/01 20:09:26;;;;;;;1.67;1.27;;;;;;;13.08;85.40;100786.34;8333086;28;20030;-60
2022/06/01 20:13:26;;;;;;;4.43;1.92;;;;;;;13.52;81.61;100785.53;8331060;28;20065;-60